createdAt,value
2022-08-17T00:02:26.651Z,50.78
2022-08-17T00:04:55.206Z,51.75
2022-08-17T00:07:22.456Z,50.30
2022-08-17T00:09:49.256Z,52.97
2022-08-17T00:12:42.681Z,57.88
2022-08-17T00:15:05.900Z,52.08
2022-08-17T00:20:04.686Z,49.03
2022-08-17T00:22:36.125Z,48.47
2022-08-17T00:25:12.152Z,47.95
2022-08-17T00:27:39.555Z,46.63
2022-08-17T00:30:09.074Z,45.70
2022-08-17T00:33:14.211Z,47.22
2022-08-17T00:35:34.717Z,46.85
2022-08-17T00:38:01.975Z,45.60
2022-08-17T00:40:44.475Z,42.50
2022-08-17T00:43:26.048Z,40.33
2022-08-17T00:45:52.823Z,49.63
2022-08-17T00:48:27.181Z,53.95
2022-08-17T00:51:04.852Z,50.20
2022-08-17T00:53:33.822Z,51.15
2022-08-17T00:56:03.347Z,50.35
2022-08-17T00:58:36.498Z,51.28
2022-08-17T01:01:04.554Z,50.30
2022-08-17T01:03:31.567Z,48.72
2022-08-17T01:06:00.669Z,45.35
2022-08-17T01:08:30.977Z,45.42
2022-08-17T01:11:02.202Z,48.40
2022-08-17T01:13:41.289Z,49.20
2022-08-17T01:16:17.628Z,49.20
2022-08-17T01:18:48.422Z,44.47
2022-08-17T01:21:47.996Z,44.15
2022-08-17T01:24:15.460Z,45.33
2022-08-17T01:26:43.322Z,45.95
2022-08-17T01:29:11.831Z,46.25
2022-08-17T01:31:44.355Z,48.65
2022-08-17T01:34:13.221Z,49.50
2022-08-17T01:36:43.216Z,48.83
2022-08-17T01:39:17.871Z,46.13
2022-08-17T01:41:46.470Z,44.08
2022-08-17T01:44:16.477Z,52.08
2022-08-17T01:46:43.636Z,50.55
2022-08-17T01:49:12.152Z,51.13
2022-08-17T01:51:39.540Z,54.17
2022-08-17T01:54:13.482Z,56.65
2022-08-17T01:56:42.659Z,56.97
2022-08-17T01:59:09.928Z,54.58
2022-08-17T02:01:37.348Z,56.17
2022-08-17T02:04:06.826Z,54.97
2022-08-17T02:06:47.051Z,52.30
2022-08-17T02:09:25.484Z,51.50
2022-08-17T02:11:55.011Z,52.10
2022-08-17T02:14:24.517Z,63.88
2022-08-17T02:16:52.089Z,50.92
2022-08-17T02:19:18.942Z,50.53
2022-08-17T02:21:48.691Z,47.92
2022-08-17T02:24:58.864Z,47.08
2022-08-17T02:27:07.152Z,39.58
2022-08-17T02:29:33.814Z,46.38
2022-08-17T02:32:01.762Z,43.15
2022-08-17T02:34:28.951Z,46.58
2022-08-17T02:36:55.874Z,47.00
2022-08-17T02:39:22.560Z,50.13
2022-08-17T02:41:49.234Z,45.05
2022-08-17T02:44:39.418Z,44.35
2022-08-17T02:47:02.595Z,45.22
2022-08-17T02:49:29.191Z,46.83
2022-08-17T02:51:58.015Z,42.10
2022-08-17T02:54:39.931Z,46.28
2022-08-17T02:57:10.189Z,44.85
2022-08-17T02:59:38.023Z,42.50
2022-08-17T03:02:07.068Z,41.97
2022-08-17T03:04:35.170Z,41.42
2022-08-17T03:07:03.355Z,39.00
2022-08-17T03:09:30.206Z,44.75
2022-08-17T03:12:08.971Z,47.20
2022-08-17T03:14:41.666Z,36.25
2022-08-17T03:17:09.968Z,40.53
2022-08-17T03:19:37.357Z,35.83
2022-08-17T03:22:36.471Z,38.03
2022-08-17T03:24:56.447Z,35.38
2022-08-17T03:27:23.460Z,40.30
2022-08-17T03:29:50.129Z,37.58
2022-08-17T03:32:17.031Z,35.17
2022-08-17T03:34:43.676Z,41.30
2022-08-17T03:37:10.342Z,36.90
2022-08-17T03:39:37.060Z,38.47
2022-08-17T03:42:31.432Z,37.13
2022-08-17T03:45:00.104Z,42.80
2022-08-17T03:47:45.615Z,38.30
2022-08-17T03:50:32.482Z,36.78
2022-08-17T03:53:17.787Z,32.97
2022-08-17T03:56:03.163Z,33.67
2022-08-17T03:58:30.040Z,30.90
2022-08-17T04:00:57.051Z,37.15
2022-08-17T04:03:24.831Z,34.38
2022-08-17T04:05:51.453Z,30.65
2022-08-17T04:08:18.056Z,31.20
2022-08-17T04:10:45.433Z,28.67
2022-08-17T04:13:12.415Z,25.60
2022-08-17T04:15:39.143Z,26.83
2022-08-17T04:18:07.491Z,25.02
2022-08-17T04:20:34.481Z,28.95
2022-08-17T04:23:09.414Z,28.20
2022-08-17T04:25:39.813Z,31.73
2022-08-17T04:28:07.715Z,29.20
2022-08-17T04:30:45.088Z,28.65
2022-08-17T04:33:13.993Z,25.08
2022-08-17T04:35:49.998Z,29.33
2022-08-17T04:38:24.250Z,28.00
2022-08-17T04:41:10.334Z,31.13
2022-08-17T04:43:38.912Z,32.75
2022-08-17T04:46:09.044Z,33.38
2022-08-17T04:48:38.436Z,33.10
2022-08-17T04:51:17.690Z,35.83
2022-08-17T04:53:49.072Z,39.40
2022-08-17T04:56:22.545Z,41.65
2022-08-17T04:58:51.492Z,38.78
2022-08-17T05:01:24.137Z,40.60
2022-08-17T05:03:52.678Z,44.38
2022-08-17T05:06:19.586Z,44.47
2022-08-17T05:08:46.383Z,44.53
2022-08-17T05:11:14.788Z,46.22
2022-08-17T05:13:41.696Z,52.40
2022-08-17T05:16:09.103Z,45.13
2022-08-17T05:18:37.182Z,45.20
2022-08-17T05:21:04.183Z,41.70
2022-08-17T05:23:42.254Z,45.60
2022-08-17T05:26:19.874Z,42.47
2022-08-17T05:28:54.938Z,38.28
2022-08-17T05:31:24.106Z,37.40
2022-08-17T05:33:50.839Z,33.72
2022-08-17T05:36:41.657Z,32.35
2022-08-17T05:39:04.356Z,31.23
2022-08-17T05:41:30.973Z,35.30
2022-08-17T05:43:57.640Z,34.55
2022-08-17T05:46:32.251Z,31.77
2022-08-17T05:49:05.606Z,28.05
2022-08-17T05:51:53.398Z,26.45
2022-08-17T05:55:01.219Z,21.75
2022-08-17T05:58:04.332Z,22.02
2022-08-17T06:00:50.659Z,23.23
2022-08-17T06:03:39.311Z,23.58
2022-08-17T06:06:38.401Z,20.95
2022-08-17T06:09:26.527Z,18.65
2022-08-17T06:12:09.835Z,18.35
2022-08-17T06:15:07.365Z,19.77
2022-08-17T06:17:35.017Z,17.60
2022-08-17T06:20:10.221Z,16.85
2022-08-17T06:22:47.636Z,15.68
2022-08-17T06:25:34.737Z,20.17
2022-08-17T06:28:27.387Z,17.00
2022-08-17T06:31:00.850Z,19.15
2022-08-17T06:33:35.366Z,14.02
2022-08-17T06:36:09.629Z,18.65
2022-08-17T06:39:00.087Z,16.63
2022-08-17T06:41:52.048Z,15.38
2022-08-17T06:44:44.749Z,13.40
2022-08-17T06:47:31.379Z,14.18
2022-08-17T06:50:27.940Z,15.35
2022-08-17T06:53:03.985Z,17.27
2022-08-17T06:55:49.200Z,18.13
2022-08-17T06:58:22.221Z,18.20
2022-08-17T07:00:56.653Z,18.08
2022-08-17T07:03:54.734Z,19.60
2022-08-17T07:06:26.461Z,17.52
2022-08-17T07:09:23.182Z,18.95
2022-08-17T07:11:58.346Z,20.30
2022-08-17T07:14:31.707Z,23.52
2022-08-17T07:17:02.882Z,21.88
2022-08-17T07:19:32.885Z,26.58
2022-08-17T07:22:21.055Z,21.25
2022-08-17T07:24:59.854Z,25.85
2022-08-17T07:27:42.839Z,29.15
2022-08-17T07:30:19.410Z,23.77
2022-08-17T07:33:03.160Z,27.65
2022-08-17T07:35:37.712Z,26.23
2022-08-17T07:38:25.664Z,25.13
2022-08-17T07:41:05.963Z,25.33
2022-08-17T07:43:41.481Z,27.85
2022-08-17T07:46:29.862Z,25.20
2022-08-17T07:49:03.378Z,28.67
2022-08-17T07:51:57.995Z,30.42
2022-08-17T07:54:32.670Z,30.15
2022-08-17T07:57:29.876Z,26.98
2022-08-17T08:00:00.008Z,31.45
2022-08-17T08:02:43.181Z,28.98
2022-08-17T08:05:29.967Z,29.10
2022-08-17T08:08:24.277Z,27.70
2022-08-17T08:11:02.558Z,28.33
2022-08-17T08:13:32.182Z,27.05
2022-08-17T08:16:17.305Z,28.92
2022-08-17T08:18:55.662Z,31.73
2022-08-17T08:21:51.174Z,32.50
2022-08-17T08:24:45.414Z,29.38
2022-08-17T08:27:42.880Z,29.45
2022-08-17T08:30:14.758Z,26.70
2022-08-17T08:35:34.939Z,33.08
2022-08-17T08:38:34.581Z,39.50
2022-08-17T08:41:16.417Z,29.88
2022-08-17T08:44:05.929Z,22.73
2022-08-17T08:46:42.362Z,27.00
2022-08-17T08:50:03.285Z,30.08
2022-08-17T08:52:58.999Z,15.00
2022-08-17T08:55:49.172Z,21.85
2022-08-17T08:58:31.707Z,16.90
2022-08-17T09:01:18.263Z,15.80
2022-08-17T09:04:24.691Z,16.60
2022-08-17T09:07:34.823Z,17.00
2022-08-17T09:10:25.605Z,14.93
2022-08-17T09:12:57.578Z,14.85
2022-08-17T09:15:33.711Z,16.25
2022-08-17T09:19:00.665Z,14.13
2022-08-17T09:20:58.786Z,14.75
2022-08-17T09:23:45.215Z,15.82
2022-08-17T09:26:26.196Z,19.63
2022-08-17T09:29:01.360Z,18.05
2022-08-17T09:31:48.205Z,20.27
2022-08-17T09:34:22.128Z,22.58
2022-08-17T09:37:29.429Z,20.80
2022-08-17T09:40:21.379Z,27.15
2022-08-17T09:42:52.750Z,21.23
2022-08-17T09:45:31.226Z,28.35
2022-08-17T09:48:18.277Z,27.42
2022-08-17T09:51:08.384Z,21.52
2022-08-17T09:53:39.532Z,26.58
2022-08-17T09:56:33.861Z,23.90
2022-08-17T09:59:05.640Z,21.17
2022-08-17T10:01:52.256Z,22.27
2022-08-17T10:04:47.724Z,26.98
2022-08-17T10:07:30.946Z,24.38
2022-08-17T10:10:14.287Z,21.33
2022-08-17T10:12:54.225Z,23.42
2022-08-17T10:15:25.302Z,25.65
2022-08-17T10:18:08.672Z,25.33
2022-08-17T10:20:44.296Z,25.55
2022-08-17T10:23:42.336Z,25.65
2022-08-17T10:26:13.253Z,21.95
2022-08-17T10:28:50.102Z,26.67
2022-08-17T10:31:35.716Z,21.73
2022-08-17T10:34:24.572Z,21.02
2022-08-17T10:37:19.548Z,24.20
2022-08-17T10:39:57.460Z,24.13
2022-08-17T10:42:48.888Z,21.25
2022-08-17T10:45:29.455Z,22.00
2022-08-17T10:48:05.341Z,18.85
2022-08-17T10:50:51.393Z,22.55
2022-08-17T10:53:33.250Z,19.63
2022-08-17T10:56:11.813Z,22.77
2022-08-17T10:58:53.927Z,25.15
2022-08-17T11:01:32.709Z,24.75
2022-08-17T11:04:17.567Z,23.40
2022-08-17T11:07:20.125Z,22.25
2022-08-17T11:10:07.792Z,23.90
2022-08-17T11:13:01.068Z,22.83
2022-08-17T11:15:38.470Z,26.58
2022-08-17T11:18:36.573Z,28.25
2022-08-17T11:21:21.924Z,25.98
2022-08-17T11:24:07.557Z,30.20
2022-08-17T11:26:38.336Z,28.27
2022-08-17T11:29:16.447Z,29.98
2022-08-17T11:31:58.536Z,29.27
2022-08-17T11:34:28.919Z,26.63
2022-08-17T11:37:40.109Z,32.20
2022-08-17T11:40:15.002Z,27.70
2022-08-17T11:43:13.407Z,28.73
2022-08-17T11:45:45.810Z,27.13
2022-08-17T11:49:08.552Z,25.45
2022-08-17T11:52:01.125Z,25.73
2022-08-17T11:57:26.559Z,26.05
2022-08-17T12:00:10.305Z,32.35
2022-08-17T12:02:47.343Z,31.35
2022-08-17T12:05:17.724Z,34.53
2022-08-17T12:07:58.403Z,33.67
2022-08-17T12:10:31.867Z,32.63
2022-08-17T12:13:04.055Z,30.90
2022-08-17T12:15:36.103Z,30.73
2022-08-17T12:18:02.999Z,37.83
2022-08-17T12:20:40.732Z,35.17
2022-08-17T12:23:16.276Z,37.13
2022-08-17T12:25:59.334Z,39.28
2022-08-17T12:28:32.351Z,40.50
2022-08-17T12:31:02.330Z,42.40
2022-08-17T12:33:29.437Z,42.40
2022-08-17T12:36:06.587Z,40.88
2022-08-17T12:38:36.574Z,43.45
2022-08-17T12:41:26.017Z,40.47
2022-08-17T12:44:05.614Z,45.55
2022-08-17T12:46:44.730Z,42.60
2022-08-17T12:49:26.442Z,42.78
2022-08-17T12:52:06.843Z,44.72
2022-08-17T12:54:40.976Z,43.00
2022-08-17T12:57:33.629Z,47.50
2022-08-17T13:00:15.860Z,44.70
2022-08-17T13:02:58.008Z,45.65
2022-08-17T13:05:29.629Z,45.42
2022-08-17T13:07:59.212Z,44.72
2022-08-17T13:10:33.453Z,46.65
2022-08-17T13:13:05.970Z,50.17
2022-08-17T13:15:43.365Z,47.50
2022-08-17T13:18:36.170Z,45.60
2022-08-17T13:21:02.902Z,43.47
2022-08-17T13:23:32.275Z,46.35
2022-08-17T13:26:05.977Z,47.40
2022-08-17T13:28:35.997Z,48.75
2022-08-17T13:31:24.113Z,48.80
2022-08-17T13:33:50.931Z,50.42
2022-08-17T13:36:30.093Z,50.55
2022-08-17T13:39:12.285Z,51.40
2022-08-17T13:41:39.437Z,48.17
2022-08-17T13:44:40.291Z,52.70
2022-08-17T13:47:17.949Z,50.65
2022-08-17T13:49:48.965Z,49.63
2022-08-17T13:52:33.943Z,50.97
2022-08-17T13:55:17.415Z,50.42
2022-08-17T13:57:49.487Z,51.03
2022-08-17T14:00:33.354Z,54.80
2022-08-17T14:03:02.228Z,53.42
2022-08-17T14:05:30.486Z,56.65
2022-08-17T14:08:07.015Z,52.08
2022-08-17T14:10:36.368Z,50.17
2022-08-17T14:13:03.376Z,55.03
2022-08-17T14:15:54.521Z,59.85
2022-08-17T14:18:18.885Z,53.58
2022-08-17T14:21:05.637Z,58.40
2022-08-17T14:23:32.831Z,58.80
2022-08-17T14:25:59.784Z,57.70
2022-08-17T14:28:26.527Z,53.72
2022-08-17T14:30:55.415Z,52.90
2022-08-17T14:33:24.656Z,53.83
2022-08-17T14:35:53.495Z,48.03
2022-08-17T14:38:20.690Z,49.70
2022-08-17T14:40:48.236Z,47.33
2022-08-17T14:43:15.775Z,49.10
2022-08-17T14:45:43.304Z,48.65
2022-08-17T14:48:10.523Z,45.47
2022-08-17T14:50:41.159Z,44.33
2022-08-17T14:53:10.940Z,43.67
2022-08-17T14:55:40.391Z,47.63
2022-08-17T14:58:08.664Z,42.20
2022-08-17T15:00:35.498Z,46.05
2022-08-17T15:03:02.716Z,42.50
2022-08-17T15:05:33.398Z,42.35
2022-08-17T15:08:01.273Z,37.97
2022-08-17T15:10:29.438Z,40.03
2022-08-17T15:12:56.475Z,41.60
2022-08-17T15:15:23.948Z,37.28
2022-08-17T15:17:51.456Z,39.13
2022-08-17T15:20:21.453Z,40.10
2022-08-17T15:22:50.033Z,41.28
2022-08-17T15:25:19.131Z,36.92
2022-08-17T15:27:46.154Z,39.03
2022-08-17T15:30:13.352Z,39.35
2022-08-17T15:32:45.782Z,39.85
2022-08-17T15:35:19.628Z,38.60
2022-08-17T15:37:54.295Z,36.95
2022-08-17T15:40:20.930Z,40.45
2022-08-17T15:42:47.530Z,37.78
2022-08-17T15:45:16.862Z,41.60
2022-08-17T15:47:43.531Z,39.03
2022-08-17T15:50:10.645Z,39.22
2022-08-17T15:52:40.216Z,41.05
2022-08-17T15:55:11.048Z,40.22
2022-08-17T15:57:38.016Z,43.38
2022-08-17T16:00:07.451Z,40.35
2022-08-17T16:03:45.668Z,40.13
2022-08-17T16:05:24.996Z,41.00
2022-08-17T16:07:52.925Z,38.72
2022-08-17T16:10:20.934Z,36.85
2022-08-17T16:12:49.801Z,42.20
2022-08-17T16:15:18.300Z,39.03
2022-08-17T16:17:45.129Z,39.50
2022-08-17T16:20:20.134Z,37.28
2022-08-17T16:22:49.283Z,37.67
2022-08-17T16:25:21.367Z,38.80
2022-08-17T16:30:17.558Z,36.97
2022-08-17T16:32:45.016Z,37.42
2022-08-17T16:35:17.195Z,34.40
2022-08-17T16:37:45.475Z,34.50
2022-08-17T16:40:14.326Z,33.55
2022-08-17T16:42:43.132Z,33.97
2022-08-17T16:45:13.375Z,33.67
2022-08-17T16:47:41.732Z,31.95
2022-08-17T16:50:11.841Z,30.42
2022-08-17T16:52:39.275Z,28.70
2022-08-17T16:55:09.354Z,32.63
2022-08-17T16:57:47.276Z,34.80
2022-08-17T17:00:17.824Z,32.95
2022-08-17T17:02:47.411Z,34.47
2022-08-17T17:05:37.408Z,31.98
2022-08-17T17:08:08.960Z,34.42
2022-08-17T17:10:43.824Z,33.13
2022-08-17T17:13:25.832Z,33.25
2022-08-17T17:18:39.080Z,35.33
2022-08-17T17:21:09.092Z,38.97
2022-08-17T17:23:38.475Z,32.97
2022-08-17T17:26:43.077Z,35.13
2022-08-17T17:29:18.769Z,34.85
2022-08-17T17:32:17.299Z,37.08
2022-08-17T17:34:50.899Z,32.67
2022-08-17T17:37:24.648Z,34.50
2022-08-17T17:39:59.874Z,32.78
2022-08-17T17:42:31.308Z,36.38
2022-08-17T17:45:08.141Z,40.22
2022-08-17T17:47:37.368Z,37.42
2022-08-17T17:50:06.498Z,36.38
2022-08-17T17:52:59.352Z,49.63
2022-08-17T17:55:40.939Z,34.92
2022-08-17T17:58:26.213Z,39.83
2022-08-17T18:01:11.937Z,36.83
2022-08-17T18:04:05.019Z,37.90
2022-08-17T18:06:59.244Z,42.70
2022-08-17T18:09:51.667Z,40.15
2022-08-17T18:13:05.332Z,43.40
2022-08-17T18:15:51.302Z,35.17
2022-08-17T18:18:18.040Z,40.90
2022-08-17T18:20:54.096Z,39.95
2022-08-17T18:23:28.031Z,41.30
2022-08-17T18:25:56.568Z,44.30
2022-08-17T18:28:43.101Z,39.00
2022-08-17T18:31:21.393Z,38.63
2022-08-17T18:33:52.473Z,36.85
2022-08-17T18:36:34.044Z,40.47
2022-08-17T18:39:39.737Z,39.53
2022-08-17T18:42:25.793Z,38.30
2022-08-17T18:44:55.359Z,38.25
2022-08-17T18:47:24.028Z,39.15
2022-08-17T18:50:15.708Z,38.60
2022-08-17T18:52:42.468Z,37.38
2022-08-17T18:55:12.584Z,37.47
2022-08-17T18:57:45.679Z,35.35
2022-08-17T19:00:19.305Z,41.30
2022-08-17T19:02:52.706Z,34.45
2022-08-17T19:05:30.961Z,34.88
2022-08-17T19:08:17.308Z,31.48
2022-08-17T19:10:47.321Z,28.17
2022-08-17T19:13:24.527Z,29.20
2022-08-17T19:16:13.897Z,25.85
2022-08-17T19:18:47.288Z,25.25
2022-08-17T19:21:22.945Z,31.08
2022-08-17T19:23:55.498Z,36.47
2022-08-17T19:26:50.556Z,33.72
2022-08-17T19:29:23.968Z,39.25
2022-08-17T19:31:51.168Z,41.10
2022-08-17T19:34:29.877Z,48.72
2022-08-17T19:37:06.835Z,44.88
2022-08-17T19:39:50.713Z,40.08
2022-08-17T19:42:53.185Z,37.15
2022-08-17T19:48:39.220Z,34.33
2022-08-17T19:51:15.292Z,37.33
2022-08-17T19:54:05.791Z,37.42
2022-08-17T19:56:41.971Z,38.13
2022-08-17T19:59:49.357Z,39.97
2022-08-17T20:02:25.121Z,39.05
2022-08-17T20:04:54.753Z,42.63
2022-08-17T20:07:37.820Z,36.72
2022-08-17T20:10:08.807Z,41.10
2022-08-17T20:12:38.229Z,38.65
2022-08-17T20:15:08.244Z,40.70
2022-08-17T20:17:38.292Z,36.03
2022-08-17T20:20:31.903Z,35.83
2022-08-17T20:23:24.835Z,38.40
2022-08-17T20:26:19.449Z,36.60
2022-08-17T20:29:15.429Z,33.15
2022-08-17T20:31:56.591Z,31.20
2022-08-17T20:34:34.852Z,33.28
2022-08-17T20:37:24.602Z,34.38
2022-08-17T20:39:52.428Z,34.88
2022-08-17T20:42:22.050Z,35.58
2022-08-17T20:44:57.995Z,32.22
2022-08-17T20:48:00.850Z,30.70
2022-08-17T20:50:43.751Z,30.98
2022-08-17T20:53:15.069Z,33.28
2022-08-17T20:55:51.309Z,34.15
2022-08-17T20:58:24.619Z,29.83
2022-08-17T21:00:57.699Z,31.58
2022-08-17T21:03:24.941Z,29.40
2022-08-17T21:06:16.927Z,35.22
2022-08-17T21:08:58.699Z,29.70
2022-08-17T21:12:03.351Z,33.88
2022-08-17T21:14:37.965Z,30.70
2022-08-17T21:17:35.228Z,35.33
2022-08-17T21:20:27.620Z,32.38
2022-08-17T21:23:26.395Z,31.63
2022-08-17T21:26:11.743Z,30.60
2022-08-17T21:29:00.772Z,33.20
2022-08-17T21:31:34.409Z,29.40
2022-08-17T21:34:16.736Z,27.92
2022-08-17T21:36:45.454Z,31.15
2022-08-17T21:39:15.902Z,26.30
2022-08-17T21:41:53.642Z,30.73
2022-08-17T21:44:30.582Z,28.63
2022-08-17T21:47:20.196Z,28.00
2022-08-17T21:49:47.232Z,30.50
2022-08-17T21:52:17.529Z,28.65
2022-08-17T21:54:57.647Z,26.92
2022-08-17T21:57:28.789Z,27.65
2022-08-17T21:59:59.816Z,26.87
2022-08-17T22:02:37.485Z,22.98
2022-08-17T22:05:11.107Z,24.75
2022-08-17T22:07:42.039Z,21.20
2022-08-17T22:10:33.662Z,22.33
2022-08-17T22:13:19.682Z,24.42
2022-08-17T22:16:28.010Z,27.20
2022-08-17T22:18:58.620Z,22.58
2022-08-17T22:21:25.752Z,20.52
2022-08-17T22:24:21.644Z,21.58
2022-08-17T22:27:03.689Z,25.30
2022-08-17T22:29:45.643Z,20.83
2022-08-17T22:32:31.580Z,21.00
2022-08-17T22:35:16.952Z,23.10
2022-08-17T22:37:43.683Z,21.15
2022-08-17T22:40:11.073Z,19.67
2022-08-17T22:42:49.607Z,20.65
2022-08-17T22:45:16.421Z,22.50
2022-08-17T22:47:48.683Z,19.83
2022-08-17T22:50:27.536Z,32.25
2022-08-17T22:53:31.499Z,24.35
2022-08-17T22:56:17.052Z,20.70
2022-08-17T22:59:14.353Z,21.75
2022-08-17T23:01:42.915Z,21.13
2022-08-17T23:04:12.799Z,18.88
2022-08-17T23:06:44.382Z,23.88
2022-08-17T23:09:10.983Z,19.70
2022-08-17T23:11:49.970Z,21.88
2022-08-17T23:14:19.729Z,23.55
2022-08-17T23:16:47.413Z,24.63
2022-08-17T23:19:16.996Z,20.40
2022-08-17T23:21:47.382Z,25.25
2022-08-17T23:24:22.442Z,24.40
2022-08-17T23:26:49.321Z,17.27
2022-08-17T23:29:16.390Z,18.85
2022-08-17T23:31:43.119Z,21.23
2022-08-17T23:34:13.403Z,21.77
2022-08-17T23:36:40.154Z,20.05
2022-08-17T23:39:07.376Z,25.98
2022-08-17T23:41:37.764Z,18.85
2022-08-17T23:44:06.257Z,19.70
2022-08-17T23:46:33.233Z,17.23
2022-08-17T23:49:00.348Z,17.55
2022-08-17T23:51:34.462Z,21.60
2022-08-17T23:54:29.260Z,17.65
2022-08-17T23:56:56.131Z,21.75
2022-08-17T23:59:23.699Z,24.60
